Αρχική σελίδα
METAR-TAF:

METAR-TAF

Αεροδρόμια :

Kake, Αλάσκα, Ηνωμένες Πολιτείες Αμερικής

γεωγραφικό πλάτος: 56-57N, γεωγραφικό μήκος: 133-54W, υψόμετρο: 52 μ

Παρών καιρός

Η αναφορά έγινε 1 ώρα και 36 λεπτά πριν, στις 02:56 UTC
Άνεμος 8 kt από ΝA
Θερμοκρασία 4°C
Υγρασία 87%
Πίεση 1006 hPa
Ορατότητα: 16.1 χλμ
Λίγα νέφη σε ύψος 1700 πόδια
Νεφοσκεπής σε ύψος 2200 πόδια

METAR: PAFE 280256Z AUTO 14008KT 10SM FEW017 OVC022 04/02 A2970 RMK AO2 RAE04 SLP071 P0000 60000 T00390022 51039 $

Χρόνος: 19:32 (04:32 UTC)


TAF: λείπει

Μετεωρολογικές αναφορές και προγνώσεις για περισσότερα από 4000 αεροδρόμια (δελτία METAR και TAF).

Οι διαθέσιμοι σταθμοί απεικονίζονται στο χάρτη με κίτρινες και κόκκινες κουκκίδες.

Μετακινήστε το ποντίκι πάνω από τις κουκκίδες για να δείτε το όνομα του σταθμού.

Στη συνέχεια, κάντε κλικ για να δείτε τις μετεωρολογικές αναφορές και τις προγνώσεις καιρού.

Για να αλλάξετε το χάρτη: κάντε κλικ στα πράσινα κουμπιά με τον μαύρο σταυρό για να ζουμάρετε, στο πράσινο κουμπί με την παύλα για να αφαιρέσετε το ζουμ ή στα πράσινα βέλη για να αντιπαραβάλλετε χάρτες.


METAR-TAF: